100LL.CA
Aviation Fuel Pricing for Canadians
Please upgrade your browser - Tested with IE9, FireFox, Chrome, Safari

Fuel Airports Other Help
Prices Economy Info List METAR/TAF Kneeboard Help

Reference Airport: GOOSE BAY, NL
N 53 19 09  W 060 25 33
Provinces to show:

CYYR GOOSE BAY, NL
WEATHER
METARCYYR 221640Z 03003KT 15SM -SHRA BKN052 17/06 A2980 RMK SC7 DENSITY ALT 714FT SLP094
TAFTAF CYYR 221140Z 2212/2318 26005KT P6SM SCT040 BKN090 TEMPO 2212/2223 P6SM -SHRA BKN040 OVC090 BECMG 2212/2214 27008G18KT FM222300 30005KT P6SM BKN070 TEMPO 2223/2306 P6SM -SHRA BECMG 2300/2302 24008KT FM230600 25008KT P6SM -SHRA SCT020 OVC040 FM231100 27008G18KT P6SM SCT040 RMK NXT FCST BY 221800Z
OTHER SITES

FlightAware

FltPlan

Google Maps

SkyVector
FUEL
FBO 100LL
member
100LL
public
JETA MOGAS
Woodward Aviation Services (2021-08-03)3.7381.300
  Note: Service Charge $100 on top of fuel
Canada Flight Supplement - CYYR
(opens in new tab/window)


Please Send Updates!

Desktop Version ]  [ Mobile Version ]  [ Disclaimer ]